createdAt,value
2022-10-11T00:01:58.270Z,12.90
2022-10-11T00:05:21.916Z,12.90
2022-10-11T00:08:44.777Z,12.90
2022-10-11T00:12:07.906Z,12.90
2022-10-11T00:15:31.497Z,12.90
2022-10-11T00:18:54.433Z,12.90
2022-10-11T00:22:17.272Z,12.80
2022-10-11T00:25:39.845Z,12.70
2022-10-11T00:29:02.033Z,12.60
2022-10-11T00:32:24.767Z,12.60
2022-10-11T00:35:48.442Z,12.60
2022-10-11T00:39:12.298Z,12.50
2022-10-11T00:42:39.593Z,12.50
2022-10-11T00:46:14.779Z,12.40
2022-10-11T00:49:49.943Z,12.40
2022-10-11T00:53:13.439Z,12.40
2022-10-11T00:56:43.153Z,12.30
2022-10-11T01:00:11.251Z,12.30
2022-10-11T01:03:36.910Z,12.20
2022-10-11T01:07:00.062Z,12.20
2022-10-11T01:10:23.267Z,12.20
2022-10-11T01:14:22.306Z,12.20
2022-10-11T01:18:03.242Z,12.10
2022-10-11T01:21:40.422Z,12.00
2022-10-11T01:25:21.002Z,12.00
2022-10-11T01:29:16.620Z,12.00
2022-10-11T01:33:02.756Z,11.90
2022-10-11T01:36:31.866Z,11.90
2022-10-11T01:40:14.068Z,11.90
2022-10-11T01:43:38.813Z,11.90
2022-10-11T01:47:00.810Z,11.80
2022-10-11T01:50:51.029Z,11.80
2022-10-11T01:54:16.055Z,11.70
2022-10-11T01:57:38.068Z,11.70
2022-10-11T02:01:20.207Z,11.70
2022-10-11T02:04:42.156Z,11.60
2022-10-11T02:08:13.088Z,11.60
2022-10-11T02:11:36.425Z,11.50
2022-10-11T02:14:58.985Z,11.50
2022-10-11T02:18:25.276Z,11.50
2022-10-11T02:21:54.652Z,11.40
2022-10-11T02:25:24.857Z,11.40
2022-10-11T02:28:49.757Z,11.30
2022-10-11T02:32:13.061Z,11.30
2022-10-11T02:35:43.091Z,11.30
2022-10-11T02:39:18.439Z,11.30
2022-10-11T02:42:59.019Z,11.30
2022-10-11T02:46:22.557Z,11.30
2022-10-11T02:49:45.686Z,11.40
2022-10-11T02:53:09.442Z,11.40
2022-10-11T02:56:32.498Z,11.30
2022-10-11T02:59:55.501Z,11.30
2022-10-11T03:03:17.750Z,11.30
2022-10-11T03:06:40.751Z,11.20
2022-10-11T03:10:03.181Z,11.10
2022-10-11T03:13:25.195Z,11.20
2022-10-11T03:16:47.267Z,11.20
2022-10-11T03:20:09.646Z,11.10
2022-10-11T03:23:32.424Z,11.20
2022-10-11T03:26:57.678Z,11.20
2022-10-11T03:30:20.189Z,11.20
2022-10-11T03:33:42.162Z,11.10
2022-10-11T03:37:04.128Z,11.10
2022-10-11T03:40:26.114Z,11.20
2022-10-11T03:43:48.580Z,11.10
2022-10-11T03:47:11.956Z,11.10
2022-10-11T03:50:35.364Z,11.10
2022-10-11T03:53:58.092Z,11.10
2022-10-11T03:57:21.176Z,11.00
2022-10-11T04:00:47.241Z,11.10
2022-10-11T04:04:12.845Z,11.00
2022-10-11T04:07:36.098Z,11.00
2022-10-11T04:10:58.350Z,11.00
2022-10-11T04:14:20.313Z,10.90
2022-10-11T04:18:07.944Z,10.90
2022-10-11T04:21:33.999Z,10.90
2022-10-11T04:24:57.469Z,10.80
2022-10-11T04:28:20.421Z,10.70
2022-10-11T04:31:45.408Z,10.70
2022-10-11T04:35:08.009Z,10.60
2022-10-11T04:38:30.948Z,10.60
2022-10-11T04:41:56.568Z,10.50
2022-10-11T04:45:19.963Z,10.50
2022-10-11T04:48:46.446Z,10.50
2022-10-11T04:52:12.589Z,10.70
2022-10-11T04:55:39.682Z,10.60
2022-10-11T04:59:03.094Z,10.60
2022-10-11T05:02:26.205Z,10.50
2022-10-11T05:05:49.771Z,10.50
2022-10-11T05:09:12.282Z,10.40
2022-10-11T05:12:38.157Z,10.40
2022-10-11T05:16:00.774Z,10.40
2022-10-11T05:19:23.133Z,10.40
2022-10-11T05:22:48.709Z,10.40
2022-10-11T05:26:11.831Z,10.40
2022-10-11T05:29:34.078Z,10.40
2022-10-11T05:32:56.612Z,10.40
2022-10-11T05:36:19.077Z,10.40
2022-10-11T05:39:43.085Z,10.40
2022-10-11T05:43:09.147Z,10.40
2022-10-11T05:46:34.475Z,10.50
2022-10-11T05:49:57.265Z,10.50
2022-10-11T05:53:19.829Z,10.70
2022-10-11T05:56:45.776Z,10.80
2022-10-11T06:00:15.771Z,10.90
2022-10-11T06:03:38.924Z,11.00
2022-10-11T06:07:01.567Z,11.10
2022-10-11T06:10:35.494Z,11.30
2022-10-11T06:13:58.659Z,11.40
2022-10-11T06:17:26.646Z,11.60
2022-10-11T06:20:59.367Z,11.90
2022-10-11T06:24:22.267Z,12.70
2022-10-11T06:27:44.590Z,13.50
2022-10-11T06:31:07.143Z,13.90
2022-10-11T06:34:32.026Z,14.20
2022-10-11T06:37:58.794Z,14.40
2022-10-11T06:41:27.804Z,14.60
2022-10-11T06:44:50.457Z,14.80
2022-10-11T06:48:18.799Z,15.00
2022-10-11T06:51:53.451Z,15.20
2022-10-11T06:55:16.524Z,15.50
2022-10-11T06:58:39.939Z,15.90
2022-10-11T07:02:02.476Z,16.50
2022-10-11T07:05:25.268Z,18.20
2022-10-11T07:08:55.521Z,20.10
2022-10-11T07:12:17.712Z,22.00
2022-10-11T07:15:41.418Z,23.30
2022-10-11T07:19:06.204Z,24.20
2022-10-11T07:22:29.220Z,24.60
2022-10-11T07:25:57.934Z,25.20
2022-10-11T07:29:27.376Z,25.50
2022-10-11T07:32:57.852Z,25.90
2022-10-11T07:36:20.612Z,26.90
2022-10-11T07:39:43.158Z,26.00
2022-10-11T07:43:06.094Z,26.30
2022-10-11T07:46:29.272Z,26.30
2022-10-11T07:49:52.108Z,26.80
2022-10-11T07:53:17.651Z,27.10
2022-10-11T07:56:40.409Z,27.20
2022-10-11T08:00:06.174Z,27.30
2022-10-11T08:03:34.344Z,27.60
2022-10-11T08:06:56.479Z,28.10
2022-10-11T08:10:29.204Z,28.60
2022-10-11T08:13:52.204Z,27.90
2022-10-11T08:17:17.308Z,28.70
2022-10-11T08:20:43.241Z,28.60
2022-10-11T08:24:16.008Z,29.10
2022-10-11T08:27:46.681Z,29.20
2022-10-11T08:31:16.556Z,29.80
2022-10-11T08:34:42.806Z,29.50
2022-10-11T08:38:04.866Z,29.40
2022-10-11T08:41:49.861Z,27.70
2022-10-11T08:45:58.444Z,28.00
2022-10-11T08:49:34.578Z,27.90
2022-10-11T08:53:15.536Z,28.40
2022-10-11T08:56:41.498Z,29.10
2022-10-11T09:00:29.512Z,28.30
2022-10-11T09:03:53.509Z,27.90
2022-10-11T09:07:28.827Z,28.50
2022-10-11T09:11:09.897Z,29.00
2022-10-11T09:14:55.828Z,28.30
2022-10-11T09:18:18.346Z,28.00
2022-10-11T09:21:56.873Z,28.20
2022-10-11T09:26:08.951Z,28.40
2022-10-11T09:30:03.021Z,28.30
2022-10-11T09:33:51.606Z,28.90
2022-10-11T09:37:24.796Z,29.70
2022-10-11T09:41:18.207Z,29.00
2022-10-11T09:45:04.848Z,28.60
2022-10-11T09:48:38.366Z,28.50
2022-10-11T09:52:05.504Z,28.40
2022-10-11T09:55:47.072Z,27.50
2022-10-11T09:59:35.867Z,26.70
2022-10-11T10:03:03.587Z,26.80
2022-10-11T10:06:30.668Z,27.30
2022-10-11T10:09:53.798Z,27.50
2022-10-11T10:13:57.783Z,27.00
2022-10-11T10:17:28.240Z,25.90
2022-10-11T10:21:00.043Z,25.70
2022-10-11T10:24:37.102Z,24.90
2022-10-11T10:28:16.060Z,24.60
2022-10-11T10:32:12.880Z,24.00
2022-10-11T10:35:42.553Z,24.20
2022-10-11T10:39:50.359Z,24.40
2022-10-11T10:43:23.358Z,24.60
2022-10-11T10:47:55.855Z,24.50
2022-10-11T10:52:05.477Z,24.20
2022-10-11T10:55:49.397Z,24.80
2022-10-11T10:59:36.254Z,24.30
2022-10-11T11:03:37.204Z,24.30
2022-10-11T11:07:14.569Z,24.50
2022-10-11T11:10:45.556Z,23.90
2022-10-11T11:14:50.206Z,23.80
2022-10-11T11:22:47.979Z,24.10
2022-10-11T11:26:30.946Z,23.80
2022-10-11T11:30:07.314Z,24.10
2022-10-11T11:34:06.689Z,24.20
2022-10-11T11:37:34.770Z,24.20
2022-10-11T11:41:05.887Z,24.00
2022-10-11T11:44:49.476Z,24.10
2022-10-11T11:48:31.855Z,24.10
2022-10-11T11:52:08.412Z,24.50
2022-10-11T11:55:58.621Z,24.70
2022-10-11T11:59:30.141Z,24.50
2022-10-11T12:03:30.015Z,24.20
2022-10-11T12:07:16.397Z,24.60
2022-10-11T12:10:58.846Z,24.90
2022-10-11T12:14:33.205Z,24.80
2022-10-11T12:18:01.329Z,25.10
2022-10-11T12:21:47.710Z,25.10
2022-10-11T12:25:13.783Z,25.40
2022-10-11T12:28:43.711Z,25.10
2022-10-11T12:32:07.371Z,25.30
2022-10-11T12:35:42.766Z,25.80
2022-10-11T12:39:23.656Z,25.20
2022-10-11T12:43:14.047Z,24.40
2022-10-11T12:47:03.854Z,24.80
2022-10-11T12:50:40.173Z,25.10
2022-10-11T12:54:25.894Z,25.50
2022-10-11T12:58:26.866Z,25.70
2022-10-11T13:01:59.578Z,25.70
2022-10-11T13:05:24.695Z,25.30
2022-10-11T13:09:00.668Z,25.20
2022-10-11T13:12:24.465Z,25.40
2022-10-11T13:15:53.882Z,25.40
2022-10-11T13:19:23.611Z,24.90
2022-10-11T13:22:59.444Z,24.80
2022-10-11T13:26:37.409Z,24.70
2022-10-11T13:30:22.046Z,24.70
2022-10-11T13:33:49.709Z,24.60
2022-10-11T13:37:25.812Z,24.60
2022-10-11T13:40:51.256Z,24.30
2022-10-11T13:44:13.929Z,24.00
2022-10-11T13:47:46.367Z,24.10
2022-10-11T13:51:37.802Z,24.10
2022-10-11T13:55:23.222Z,24.30
2022-10-11T13:58:48.977Z,24.20
2022-10-11T14:02:24.014Z,24.20
2022-10-11T14:06:05.168Z,24.40
2022-10-11T14:09:47.019Z,24.70
2022-10-11T14:13:38.364Z,24.50
2022-10-11T14:17:25.059Z,24.20
2022-10-11T14:20:59.806Z,24.10
2022-10-11T14:24:43.908Z,23.90
2022-10-11T14:28:13.496Z,23.50
2022-10-11T14:31:41.266Z,23.40
2022-10-11T14:35:04.741Z,23.40
2022-10-11T14:38:28.063Z,23.30
2022-10-11T14:41:58.630Z,23.30
2022-10-11T14:45:31.128Z,23.30
2022-10-11T14:48:56.363Z,23.30
2022-10-11T14:52:20.199Z,22.90
2022-10-11T14:55:45.608Z,22.90
2022-10-11T14:59:18.519Z,22.80
2022-10-11T15:02:46.310Z,22.80
2022-10-11T15:06:24.827Z,22.80
2022-10-11T15:10:05.891Z,22.60
2022-10-11T15:13:37.841Z,22.50
2022-10-11T15:17:03.124Z,22.30
2022-10-11T15:20:30.211Z,22.20
2022-10-11T15:23:53.490Z,22.10
2022-10-11T15:27:25.483Z,22.10
2022-10-11T15:30:47.462Z,22.00
2022-10-11T15:34:11.259Z,22.00
2022-10-11T15:37:37.290Z,21.80
2022-10-11T15:41:01.136Z,21.70
2022-10-11T15:44:26.211Z,21.60
2022-10-11T15:47:48.989Z,21.50
2022-10-11T15:51:14.833Z,21.40
2022-10-11T15:54:47.744Z,21.40
2022-10-11T15:58:34.475Z,21.30
2022-10-11T16:02:01.801Z,21.10
2022-10-11T16:05:28.509Z,21.10
2022-10-11T16:08:54.672Z,21.00
2022-10-11T16:12:56.443Z,20.70
2022-10-11T16:16:23.065Z,20.60
2022-10-11T16:19:45.326Z,20.50
2022-10-11T16:23:12.195Z,20.30
2022-10-11T16:26:35.167Z,20.20
2022-10-11T16:29:58.446Z,20.00
2022-10-11T16:33:21.683Z,19.80
2022-10-11T16:36:46.308Z,19.60
2022-10-11T16:40:10.895Z,19.50
2022-10-11T16:48:57.602Z,19.20
2022-10-11T16:53:35.441Z,18.90
2022-10-11T16:57:40.398Z,18.80
2022-10-11T17:11:11.841Z,18.10
2022-10-11T17:14:38.162Z,17.90
2022-10-11T17:18:00.391Z,17.80
2022-10-11T17:21:23.199Z,17.70
2022-10-11T17:24:45.865Z,17.70
2022-10-11T17:28:08.143Z,17.60
2022-10-11T17:31:30.700Z,17.50
2022-10-11T17:34:54.132Z,17.40
2022-10-11T17:38:16.231Z,17.30
2022-10-11T17:41:39.243Z,17.30
2022-10-11T17:45:01.711Z,17.20
2022-10-11T17:48:24.157Z,17.20
2022-10-11T17:51:46.168Z,17.00
2022-10-11T17:55:08.399Z,17.10
2022-10-11T17:58:34.700Z,16.90
2022-10-11T18:01:59.657Z,16.80
2022-10-11T18:05:23.036Z,16.70
2022-10-11T18:08:52.453Z,16.60
2022-10-11T18:12:16.027Z,16.60
2022-10-11T18:15:38.731Z,16.50
2022-10-11T18:19:06.475Z,16.50
2022-10-11T18:22:31.927Z,16.50
2022-10-11T18:25:54.424Z,16.40
2022-10-11T18:29:16.899Z,16.40
2022-10-11T18:32:39.544Z,16.30
2022-10-11T18:36:04.021Z,16.30
2022-10-11T18:39:27.139Z,16.30
2022-10-11T18:42:49.814Z,16.20
2022-10-11T18:46:14.479Z,16.20
2022-10-11T18:49:36.878Z,16.20
2022-10-11T18:52:59.357Z,16.20
2022-10-11T18:56:24.802Z,16.20
2022-10-11T18:59:47.195Z,16.10
2022-10-11T19:03:09.660Z,16.10
2022-10-11T19:06:41.621Z,16.00
2022-10-11T19:10:07.184Z,16.00
2022-10-11T19:13:36.048Z,16.00
2022-10-11T19:16:58.296Z,16.00
2022-10-11T19:20:21.133Z,15.90
2022-10-11T19:23:45.790Z,16.00
2022-10-11T19:27:08.033Z,15.90
2022-10-11T19:30:32.415Z,15.80
2022-10-11T19:33:54.534Z,15.70
2022-10-11T19:37:17.304Z,15.60
2022-10-11T19:40:39.832Z,15.50
2022-10-11T19:44:06.218Z,15.50
2022-10-11T19:47:28.212Z,15.40
2022-10-11T19:50:56.626Z,15.40
2022-10-11T19:54:19.092Z,15.30
2022-10-11T19:57:41.407Z,15.30
2022-10-11T20:01:29.985Z,15.30
2022-10-11T20:04:53.456Z,15.40
2022-10-11T20:08:19.295Z,15.40
2022-10-11T20:11:41.836Z,15.50
2022-10-11T20:15:08.536Z,15.40
2022-10-11T20:18:35.030Z,15.40
2022-10-11T20:21:58.406Z,15.30
2022-10-11T20:25:24.086Z,15.20
2022-10-11T20:28:49.442Z,15.30
2022-10-11T20:32:17.098Z,15.20
2022-10-11T20:35:39.864Z,15.20
2022-10-11T20:39:02.756Z,15.10
2022-10-11T20:42:29.746Z,15.10
2022-10-11T20:46:01.717Z,15.00
2022-10-11T20:49:24.675Z,15.00
2022-10-11T20:52:51.823Z,15.00
2022-10-11T20:56:22.521Z,15.00
2022-10-11T20:59:48.318Z,15.00
2022-10-11T21:03:28.035Z,14.90
2022-10-11T21:06:52.061Z,14.90
2022-10-11T21:10:17.394Z,14.90
2022-10-11T21:13:39.748Z,14.90
2022-10-11T21:17:05.653Z,14.90
2022-10-11T21:20:37.823Z,14.90
2022-10-11T21:24:02.947Z,14.90
2022-10-11T21:27:26.169Z,14.90
2022-10-11T21:30:51.041Z,14.90
2022-10-11T21:34:15.515Z,14.80
2022-10-11T21:37:37.598Z,14.80
2022-10-11T21:41:10.784Z,14.90
2022-10-11T21:44:36.536Z,14.80
2022-10-11T21:47:59.125Z,14.80
2022-10-11T21:51:30.416Z,14.70
2022-10-11T21:54:54.118Z,14.80
2022-10-11T21:58:18.973Z,14.70
2022-10-11T22:01:42.746Z,14.70
2022-10-11T22:05:04.963Z,14.60
2022-10-11T22:08:26.978Z,14.60
2022-10-11T22:11:49.476Z,14.50
2022-10-11T22:15:12.140Z,14.40
2022-10-11T22:18:38.763Z,14.40
2022-10-11T22:22:01.606Z,14.30
2022-10-11T22:25:24.172Z,14.30
2022-10-11T22:28:47.465Z,14.20
2022-10-11T22:32:10.519Z,14.10
2022-10-11T22:35:39.728Z,14.10
2022-10-11T22:39:14.511Z,14.10
2022-10-11T22:42:40.355Z,14.00
2022-10-11T22:46:03.738Z,14.00
2022-10-11T22:49:26.683Z,13.90
2022-10-11T22:52:49.305Z,13.90
2022-10-11T22:56:14.424Z,13.80
2022-10-11T22:59:40.659Z,13.80
2022-10-11T23:03:13.752Z,13.80
2022-10-11T23:06:36.781Z,13.80
2022-10-11T23:10:02.751Z,13.80
2022-10-11T23:13:34.304Z,13.90
2022-10-11T23:16:57.271Z,13.90
2022-10-11T23:20:26.062Z,13.90
2022-10-11T23:23:52.451Z,13.80
2022-10-11T23:27:15.346Z,13.80
2022-10-11T23:30:40.690Z,13.80
2022-10-11T23:34:06.536Z,13.70
2022-10-11T23:37:29.319Z,13.70
2022-10-11T23:40:52.414Z,13.60
2022-10-11T23:44:15.079Z,13.60
2022-10-11T23:47:38.071Z,13.60
2022-10-11T23:51:00.386Z,13.50
2022-10-11T23:54:23.215Z,13.40
2022-10-11T23:57:46.269Z,13.30
